sensor_id;sensor_type;location;lat;lon;timestamp;P1;durP1;ratioP1;P2;durP2;ratioP2
14209;SDS011;7188;56.070;12.698;2022-09-30T00:01:23;1.60;;;0.70;;
14209;SDS011;7188;56.070;12.698;2022-09-30T00:03:50;2.00;;;0.63;;
14209;SDS011;7188;56.070;12.698;2022-09-30T00:06:16;3.60;;;1.20;;
14209;SDS011;7188;56.070;12.698;2022-09-30T00:08:44;1.40;;;0.63;;
14209;SDS011;7188;56.070;12.698;2022-09-30T00:11:15;1.00;;;0.50;;
14209;SDS011;7188;56.070;12.698;2022-09-30T00:13:43;2.97;;;0.80;;
14209;SDS011;7188;56.070;12.698;2022-09-30T00:16:11;1.83;;;0.73;;
14209;SDS011;7188;56.070;12.698;2022-09-30T00:18:38;0.70;;;0.70;;
14209;SDS011;7188;56.070;12.698;2022-09-30T00:21:05;0.60;;;0.60;;
14209;SDS011;7188;56.070;12.698;2022-09-30T00:23:32;3.53;;;0.70;;
14209;SDS011;7188;56.070;12.698;2022-09-30T00:26:02;1.80;;;0.50;;
14209;SDS011;7188;56.070;12.698;2022-09-30T00:28:30;0.60;;;0.50;;
14209;SDS011;7188;56.070;12.698;2022-09-30T00:30:59;0.50;;;0.50;;
14209;SDS011;7188;56.070;12.698;2022-09-30T00:33:25;1.03;;;0.50;;
14209;SDS011;7188;56.070;12.698;2022-09-30T00:35:51;0.70;;;0.67;;
14209;SDS011;7188;56.070;12.698;2022-09-30T00:38:17;1.40;;;0.67;;
14209;SDS011;7188;56.070;12.698;2022-09-30T00:40:43;0.80;;;0.80;;
14209;SDS011;7188;56.070;12.698;2022-09-30T00:43:12;0.53;;;0.53;;
14209;SDS011;7188;56.070;12.698;2022-09-30T00:45:41;1.70;;;0.70;;
14209;SDS011;7188;56.070;12.698;2022-09-30T00:48:22;1.30;;;0.83;;
14209;SDS011;7188;56.070;12.698;2022-09-30T00:50:58;0.93;;;0.93;;
14209;SDS011;7188;56.070;12.698;2022-09-30T00:56:28;1.63;;;1.53;;
14209;SDS011;7188;56.070;12.698;2022-09-30T01:01:29;1.60;;;1.50;;
14209;SDS011;7188;56.070;12.698;2022-09-30T01:03:57;1.57;;;1.47;;
14209;SDS011;7188;56.070;12.698;2022-09-30T01:06:27;1.40;;;1.30;;
14209;SDS011;7188;56.070;12.698;2022-09-30T01:08:53;2.13;;;1.60;;
14209;SDS011;7188;56.070;12.698;2022-09-30T01:11:19;1.37;;;1.37;;
14209;SDS011;7188;56.070;12.698;2022-09-30T01:13:46;2.23;;;1.47;;
14209;SDS011;7188;56.070;12.698;2022-09-30T01:19:26;1.73;;;1.63;;
14209;SDS011;7188;56.070;12.698;2022-09-30T01:43:28;1.80;;;1.70;;
14209;SDS011;7188;56.070;12.698;2022-09-30T01:49:04;3.30;;;1.60;;
14209;SDS011;7188;56.070;12.698;2022-09-30T01:54:42;2.07;;;1.97;;
14209;SDS011;7188;56.070;12.698;2022-09-30T01:57:21;1.87;;;1.60;;
14209;SDS011;7188;56.070;12.698;2022-09-30T02:00:12;3.00;;;2.20;;
14209;SDS011;7188;56.070;12.698;2022-09-30T02:02:50;2.13;;;2.03;;
14209;SDS011;7188;56.070;12.698;2022-09-30T02:05:24;3.00;;;2.70;;
14209;SDS011;7188;56.070;12.698;2022-09-30T02:07:56;2.00;;;1.90;;
14209;SDS011;7188;56.070;12.698;2022-09-30T02:10:26;2.67;;;2.40;;
14209;SDS011;7188;56.070;12.698;2022-09-30T02:13:11;1.90;;;1.80;;
14209;SDS011;7188;56.070;12.698;2022-09-30T02:15:46;1.90;;;1.80;;
14209;SDS011;7188;56.070;12.698;2022-09-30T02:18:19;2.63;;;2.40;;
14209;SDS011;7188;56.070;12.698;2022-09-30T02:21:04;2.03;;;1.60;;
14209;SDS011;7188;56.070;12.698;2022-09-30T02:23:33;1.80;;;1.70;;
14209;SDS011;7188;56.070;12.698;2022-09-30T02:26:06;2.27;;;2.07;;
14209;SDS011;7188;56.070;12.698;2022-09-30T02:28:39;2.67;;;2.40;;
14209;SDS011;7188;56.070;12.698;2022-09-30T02:31:08;2.40;;;2.20;;
14209;SDS011;7188;56.070;12.698;2022-09-30T02:33:39;2.57;;;2.30;;
14209;SDS011;7188;56.070;12.698;2022-09-30T02:36:09;2.53;;;2.33;;
14209;SDS011;7188;56.070;12.698;2022-09-30T02:38:53;3.27;;;1.90;;
14209;SDS011;7188;56.070;12.698;2022-09-30T02:41:37;2.53;;;2.17;;
14209;SDS011;7188;56.070;12.698;2022-09-30T02:44:08;2.13;;;2.03;;
14209;SDS011;7188;56.070;12.698;2022-09-30T02:49:20;4.33;;;2.73;;
14209;SDS011;7188;56.070;12.698;2022-09-30T02:59:37;5.63;;;2.93;;
14209;SDS011;7188;56.070;12.698;2022-09-30T03:02:04;3.37;;;2.83;;
14209;SDS011;7188;56.070;12.698;2022-09-30T03:04:31;2.90;;;2.70;;
14209;SDS011;7188;56.070;12.698;2022-09-30T03:07:00;3.00;;;2.80;;
14209;SDS011;7188;56.070;12.698;2022-09-30T03:09:25;2.90;;;2.50;;
14209;SDS011;7188;56.070;12.698;2022-09-30T03:11:58;3.47;;;3.00;;
14209;SDS011;7188;56.070;12.698;2022-09-30T03:14:57;5.13;;;3.10;;
14209;SDS011;7188;56.070;12.698;2022-09-30T03:28:43;2.93;;;2.73;;
14209;SDS011;7188;56.070;12.698;2022-09-30T03:34:22;3.20;;;2.57;;
14209;SDS011;7188;56.070;12.698;2022-09-30T03:39:36;2.17;;;2.03;;
14209;SDS011;7188;56.070;12.698;2022-09-30T03:42:26;3.17;;;2.93;;
14209;SDS011;7188;56.070;12.698;2022-09-30T03:47:29;4.60;;;2.63;;
14209;SDS011;7188;56.070;12.698;2022-09-30T03:49:58;2.20;;;2.10;;
14209;SDS011;7188;56.070;12.698;2022-09-30T03:52:29;2.90;;;2.70;;
14209;SDS011;7188;56.070;12.698;2022-09-30T03:54:59;3.27;;;2.67;;
14209;SDS011;7188;56.070;12.698;2022-09-30T03:57:27;2.67;;;2.30;;
14209;SDS011;7188;56.070;12.698;2022-09-30T03:59:54;3.33;;;2.80;;
14209;SDS011;7188;56.070;12.698;2022-09-30T04:02:21;2.60;;;2.40;;
14209;SDS011;7188;56.070;12.698;2022-09-30T04:04:47;2.63;;;2.40;;
14209;SDS011;7188;56.070;12.698;2022-09-30T04:07:13;3.07;;;2.77;;
14209;SDS011;7188;56.070;12.698;2022-09-30T04:09:38;3.57;;;2.83;;
14209;SDS011;7188;56.070;12.698;2022-09-30T04:12:05;3.80;;;3.50;;
14209;SDS011;7188;56.070;12.698;2022-09-30T04:14:31;2.90;;;2.70;;
14209;SDS011;7188;56.070;12.698;2022-09-30T04:16:57;3.10;;;2.90;;
14209;SDS011;7188;56.070;12.698;2022-09-30T04:19:22;3.30;;;3.10;;
14209;SDS011;7188;56.070;12.698;2022-09-30T04:21:52;2.97;;;2.77;;
14209;SDS011;7188;56.070;12.698;2022-09-30T04:24:18;3.93;;;3.53;;
14209;SDS011;7188;56.070;12.698;2022-09-30T04:26:45;3.73;;;3.37;;
14209;SDS011;7188;56.070;12.698;2022-09-30T04:29:10;4.07;;;3.30;;
14209;SDS011;7188;56.070;12.698;2022-09-30T04:31:36;3.10;;;2.80;;
14209;SDS011;7188;56.070;12.698;2022-09-30T04:34:01;4.13;;;3.20;;
14209;SDS011;7188;56.070;12.698;2022-09-30T04:36:27;2.90;;;2.70;;
14209;SDS011;7188;56.070;12.698;2022-09-30T04:38:53;3.37;;;3.10;;
14209;SDS011;7188;56.070;12.698;2022-09-30T04:41:18;3.10;;;2.90;;
14209;SDS011;7188;56.070;12.698;2022-09-30T04:43:44;4.33;;;3.80;;
14209;SDS011;7188;56.070;12.698;2022-09-30T04:46:12;3.70;;;3.40;;
14209;SDS011;7188;56.070;12.698;2022-09-30T04:48:39;4.63;;;4.23;;
14209;SDS011;7188;56.070;12.698;2022-09-30T04:51:07;4.80;;;4.40;;
14209;SDS011;7188;56.070;12.698;2022-09-30T04:53:33;4.70;;;4.20;;
14209;SDS011;7188;56.070;12.698;2022-09-30T04:55:59;6.00;;;4.73;;
14209;SDS011;7188;56.070;12.698;2022-09-30T04:58:25;4.70;;;4.30;;
14209;SDS011;7188;56.070;12.698;2022-09-30T05:00:58;4.47;;;4.17;;
14209;SDS011;7188;56.070;12.698;2022-09-30T05:03:27;4.33;;;3.93;;
14209;SDS011;7188;56.070;12.698;2022-09-30T05:05:53;4.30;;;3.80;;
14209;SDS011;7188;56.070;12.698;2022-09-30T05:08:19;3.90;;;3.03;;
14209;SDS011;7188;56.070;12.698;2022-09-30T05:10:51;3.90;;;3.50;;
14209;SDS011;7188;56.070;12.698;2022-09-30T05:13:22;4.63;;;3.73;;
14209;SDS011;7188;56.070;12.698;2022-09-30T05:15:49;4.27;;;3.97;;
14209;SDS011;7188;56.070;12.698;2022-09-30T05:18:15;3.87;;;3.60;;
14209;SDS011;7188;56.070;12.698;2022-09-30T05:20:43;4.17;;;3.67;;
14209;SDS011;7188;56.070;12.698;2022-09-30T05:23:09;3.27;;;3.07;;
14209;SDS011;7188;56.070;12.698;2022-09-30T05:25:34;3.33;;;3.03;;
14209;SDS011;7188;56.070;12.698;2022-09-30T05:28:00;3.17;;;2.97;;
14209;SDS011;7188;56.070;12.698;2022-09-30T05:30:26;5.17;;;3.30;;
14209;SDS011;7188;56.070;12.698;2022-09-30T05:32:52;3.30;;;3.10;;
14209;SDS011;7188;56.070;12.698;2022-09-30T05:35:18;3.30;;;3.07;;
14209;SDS011;7188;56.070;12.698;2022-09-30T05:37:43;3.50;;;3.23;;
14209;SDS011;7188;56.070;12.698;2022-09-30T05:40:09;3.13;;;2.70;;
14209;SDS011;7188;56.070;12.698;2022-09-30T05:42:34;3.53;;;3.13;;
14209;SDS011;7188;56.070;12.698;2022-09-30T05:45:02;2.93;;;2.60;;
14209;SDS011;7188;56.070;12.698;2022-09-30T05:47:49;3.57;;;3.27;;
14209;SDS011;7188;56.070;12.698;2022-09-30T05:50:18;3.20;;;2.90;;
14209;SDS011;7188;56.070;12.698;2022-09-30T05:52:45;3.63;;;3.33;;
14209;SDS011;7188;56.070;12.698;2022-09-30T05:55:11;2.90;;;2.70;;
14209;SDS011;7188;56.070;12.698;2022-09-30T05:57:36;3.63;;;2.73;;
14209;SDS011;7188;56.070;12.698;2022-09-30T06:00:03;3.07;;;2.87;;
14209;SDS011;7188;56.070;12.698;2022-09-30T06:02:30;2.57;;;2.37;;
14209;SDS011;7188;56.070;12.698;2022-09-30T06:04:55;2.70;;;2.50;;
14209;SDS011;7188;56.070;12.698;2022-09-30T06:07:21;2.70;;;2.50;;
14209;SDS011;7188;56.070;12.698;2022-09-30T06:09:46;2.40;;;2.23;;
14209;SDS011;7188;56.070;12.698;2022-09-30T06:12:12;3.27;;;3.07;;
14209;SDS011;7188;56.070;12.698;2022-09-30T06:14:40;3.07;;;2.87;;
14209;SDS011;7188;56.070;12.698;2022-09-30T06:17:06;3.33;;;3.13;;
14209;SDS011;7188;56.070;12.698;2022-09-30T06:19:32;3.80;;;3.50;;
14209;SDS011;7188;56.070;12.698;2022-09-30T06:21:58;4.17;;;3.77;;
14209;SDS011;7188;56.070;12.698;2022-09-30T06:24:24;4.13;;;3.80;;
14209;SDS011;7188;56.070;12.698;2022-09-30T06:26:49;4.30;;;4.00;;
14209;SDS011;7188;56.070;12.698;2022-09-30T06:29:15;5.13;;;3.53;;
14209;SDS011;7188;56.070;12.698;2022-09-30T06:31:41;4.00;;;3.70;;
14209;SDS011;7188;56.070;12.698;2022-09-30T06:34:06;4.53;;;4.13;;
14209;SDS011;7188;56.070;12.698;2022-09-30T06:36:32;5.77;;;4.17;;
14209;SDS011;7188;56.070;12.698;2022-09-30T06:39:02;3.57;;;3.30;;
14209;SDS011;7188;56.070;12.698;2022-09-30T06:41:28;3.90;;;3.60;;
14209;SDS011;7188;56.070;12.698;2022-09-30T06:43:55;3.70;;;3.50;;
14209;SDS011;7188;56.070;12.698;2022-09-30T06:46:22;4.13;;;3.67;;
14209;SDS011;7188;56.070;12.698;2022-09-30T06:48:49;4.63;;;3.83;;
14209;SDS011;7188;56.070;12.698;2022-09-30T06:51:18;3.87;;;3.50;;
14209;SDS011;7188;56.070;12.698;2022-09-30T06:53:44;4.20;;;3.73;;
14209;SDS011;7188;56.070;12.698;2022-09-30T06:56:14;6.50;;;4.57;;
14209;SDS011;7188;56.070;12.698;2022-09-30T06:58:41;4.57;;;4.23;;
14209;SDS011;7188;56.070;12.698;2022-09-30T07:01:09;5.23;;;4.80;;
14209;SDS011;7188;56.070;12.698;2022-09-30T07:03:39;5.70;;;5.17;;
14209;SDS011;7188;56.070;12.698;2022-09-30T07:06:06;5.97;;;5.37;;
14209;SDS011;7188;56.070;12.698;2022-09-30T07:08:33;5.50;;;5.10;;
14209;SDS011;7188;56.070;12.698;2022-09-30T07:11:01;6.63;;;5.30;;
14209;SDS011;7188;56.070;12.698;2022-09-30T07:13:38;5.13;;;4.73;;
14209;SDS011;7188;56.070;12.698;2022-09-30T07:16:09;4.53;;;4.13;;
14209;SDS011;7188;56.070;12.698;2022-09-30T07:18:36;5.47;;;4.20;;
14209;SDS011;7188;56.070;12.698;2022-09-30T07:21:02;5.80;;;4.97;;
14209;SDS011;7188;56.070;12.698;2022-09-30T07:23:28;6.73;;;5.00;;
14209;SDS011;7188;56.070;12.698;2022-09-30T07:25:57;5.13;;;4.73;;
14209;SDS011;7188;56.070;12.698;2022-09-30T07:28:25;5.83;;;5.27;;
14209;SDS011;7188;56.070;12.698;2022-09-30T07:30:56;5.83;;;5.27;;
14209;SDS011;7188;56.070;12.698;2022-09-30T07:33:24;8.63;;;6.00;;
14209;SDS011;7188;56.070;12.698;2022-09-30T07:35:54;5.60;;;5.10;;
14209;SDS011;7188;56.070;12.698;2022-09-30T07:38:22;6.47;;;5.93;;
14209;SDS011;7188;56.070;12.698;2022-09-30T07:40:59;6.03;;;5.40;;
14209;SDS011;7188;56.070;12.698;2022-09-30T07:43:27;5.53;;;5.07;;
14209;SDS011;7188;56.070;12.698;2022-09-30T07:46:09;7.10;;;5.60;;
14209;SDS011;7188;56.070;12.698;2022-09-30T07:48:37;5.43;;;5.03;;
14209;SDS011;7188;56.070;12.698;2022-09-30T07:51:11;5.47;;;4.97;;
14209;SDS011;7188;56.070;12.698;2022-09-30T07:53:43;6.00;;;4.90;;
14209;SDS011;7188;56.070;12.698;2022-09-30T07:56:10;5.23;;;4.77;;
14209;SDS011;7188;56.070;12.698;2022-09-30T07:58:37;5.27;;;4.77;;
14209;SDS011;7188;56.070;12.698;2022-09-30T08:01:04;6.27;;;5.60;;
14209;SDS011;7188;56.070;12.698;2022-09-30T08:03:36;5.37;;;4.87;;
14209;SDS011;7188;56.070;12.698;2022-09-30T08:06:05;5.87;;;5.37;;
14209;SDS011;7188;56.070;12.698;2022-09-30T08:08:32;6.33;;;4.53;;
14209;SDS011;7188;56.070;12.698;2022-09-30T08:10:58;5.17;;;4.77;;
14209;SDS011;7188;56.070;12.698;2022-09-30T08:13:24;5.83;;;5.20;;
14209;SDS011;7188;56.070;12.698;2022-09-30T08:15:50;4.53;;;4.13;;
14209;SDS011;7188;56.070;12.698;2022-09-30T08:18:15;5.37;;;4.67;;
14209;SDS011;7188;56.070;12.698;2022-09-30T08:20:41;5.30;;;4.50;;
14209;SDS011;7188;56.070;12.698;2022-09-30T08:23:07;3.90;;;3.60;;
14209;SDS011;7188;56.070;12.698;2022-09-30T08:25:32;4.53;;;4.13;;
14209;SDS011;7188;56.070;12.698;2022-09-30T08:27:58;4.70;;;4.00;;
14209;SDS011;7188;56.070;12.698;2022-09-30T08:30:23;4.10;;;3.70;;
14209;SDS011;7188;56.070;12.698;2022-09-30T08:32:49;3.57;;;3.33;;
14209;SDS011;7188;56.070;12.698;2022-09-30T08:35:15;3.10;;;2.83;;
14209;SDS011;7188;56.070;12.698;2022-09-30T08:37:40;4.40;;;4.00;;
14209;SDS011;7188;56.070;12.698;2022-09-30T08:40:08;3.90;;;3.50;;
14209;SDS011;7188;56.070;12.698;2022-09-30T08:42:47;4.40;;;3.77;;
14209;SDS011;7188;56.070;12.698;2022-09-30T08:51:25;4.03;;;3.70;;
14209;SDS011;7188;56.070;12.698;2022-09-30T08:53:59;3.73;;;3.30;;
14209;SDS011;7188;56.070;12.698;2022-09-30T08:56:29;4.27;;;3.40;;
14209;SDS011;7188;56.070;12.698;2022-09-30T08:59:03;4.07;;;3.47;;
14209;SDS011;7188;56.070;12.698;2022-09-30T09:01:54;4.03;;;3.73;;
14209;SDS011;7188;56.070;12.698;2022-09-30T09:04:47;4.63;;;3.80;;
14209;SDS011;7188;56.070;12.698;2022-09-30T09:09:55;4.50;;;4.20;;
14209;SDS011;7188;56.070;12.698;2022-09-30T09:12:27;4.20;;;3.90;;
14209;SDS011;7188;56.070;12.698;2022-09-30T09:15:17;4.80;;;4.40;;
14209;SDS011;7188;56.070;12.698;2022-09-30T09:18:19;7.40;;;5.30;;
14209;SDS011;7188;56.070;12.698;2022-09-30T09:23:20;5.50;;;4.97;;
14209;SDS011;7188;56.070;12.698;2022-09-30T09:25:47;4.57;;;4.17;;
14209;SDS011;7188;56.070;12.698;2022-09-30T09:28:39;4.43;;;3.93;;
14209;SDS011;7188;56.070;12.698;2022-09-30T09:31:07;2.83;;;2.50;;
14209;SDS011;7188;56.070;12.698;2022-09-30T09:33:38;2.40;;;1.40;;
14209;SDS011;7188;56.070;12.698;2022-09-30T09:41:57;1.90;;;1.80;;
14209;SDS011;7188;56.070;12.698;2022-09-30T09:44:42;2.13;;;1.90;;
14209;SDS011;7188;56.070;12.698;2022-09-30T09:47:18;1.73;;;1.63;;
14209;SDS011;7188;56.070;12.698;2022-09-30T09:54:38;2.93;;;0.87;;
14209;SDS011;7188;56.070;12.698;2022-09-30T09:57:10;1.83;;;0.67;;
14209;SDS011;7188;56.070;12.698;2022-09-30T10:05:58;0.43;;;0.37;;
14209;SDS011;7188;56.070;12.698;2022-09-30T10:08:51;0.60;;;0.50;;
14209;SDS011;7188;56.070;12.698;2022-09-30T10:11:20;1.70;;;0.40;;
14209;SDS011;7188;56.070;12.698;2022-09-30T10:13:47;0.73;;;0.33;;
14209;SDS011;7188;56.070;12.698;2022-09-30T10:16:29;0.50;;;0.40;;
14209;SDS011;7188;56.070;12.698;2022-09-30T10:18:57;1.10;;;0.50;;
14209;SDS011;7188;56.070;12.698;2022-09-30T10:21:25;3.23;;;0.60;;
14209;SDS011;7188;56.070;12.698;2022-09-30T10:23:53;0.97;;;0.57;;
14209;SDS011;7188;56.070;12.698;2022-09-30T10:26:20;1.90;;;0.40;;
14209;SDS011;7188;56.070;12.698;2022-09-30T10:28:58;0.40;;;0.40;;
14209;SDS011;7188;56.070;12.698;2022-09-30T10:31:33;0.93;;;0.57;;
14209;SDS011;7188;56.070;12.698;2022-09-30T10:37:01;1.00;;;0.60;;
14209;SDS011;7188;56.070;12.698;2022-09-30T10:39:43;1.17;;;0.80;;
14209;SDS011;7188;56.070;12.698;2022-09-30T10:42:37;1.33;;;0.80;;
14209;SDS011;7188;56.070;12.698;2022-09-30T10:45:06;3.77;;;0.73;;
14209;SDS011;7188;56.070;12.698;2022-09-30T10:47:42;1.13;;;0.80;;
14209;SDS011;7188;56.070;12.698;2022-09-30T10:50:11;1.53;;;0.70;;
14209;SDS011;7188;56.070;12.698;2022-09-30T10:52:57;0.93;;;0.60;;
14209;SDS011;7188;56.070;12.698;2022-09-30T10:55:30;1.80;;;0.77;;
14209;SDS011;7188;56.070;12.698;2022-09-30T10:58:44;0.67;;;0.67;;
14209;SDS011;7188;56.070;12.698;2022-09-30T11:04:10;1.20;;;0.60;;
14209;SDS011;7188;56.070;12.698;2022-09-30T11:07:07;0.60;;;0.60;;
14209;SDS011;7188;56.070;12.698;2022-09-30T11:09:49;0.40;;;0.40;;
14209;SDS011;7188;56.070;12.698;2022-09-30T11:12:58;2.30;;;1.00;;
14209;SDS011;7188;56.070;12.698;2022-09-30T11:18:44;2.03;;;1.27;;
14209;SDS011;7188;56.070;12.698;2022-09-30T11:21:18;1.23;;;1.13;;
14209;SDS011;7188;56.070;12.698;2022-09-30T11:26:42;3.40;;;2.97;;
14209;SDS011;7188;56.070;12.698;2022-09-30T11:43:09;2.50;;;2.10;;
14209;SDS011;7188;56.070;12.698;2022-09-30T11:59:45;2.30;;;1.80;;
14209;SDS011;7188;56.070;12.698;2022-09-30T12:02:33;1.80;;;1.70;;
14209;SDS011;7188;56.070;12.698;2022-09-30T12:05:16;4.27;;;2.40;;
14209;SDS011;7188;56.070;12.698;2022-09-30T12:08:15;4.67;;;2.67;;
14209;SDS011;7188;56.070;12.698;2022-09-30T12:10:54;2.57;;;2.37;;
14209;SDS011;7188;56.070;12.698;2022-09-30T12:13:28;3.90;;;3.17;;
14209;SDS011;7188;56.070;12.698;2022-09-30T12:16:00;3.33;;;2.40;;
14209;SDS011;7188;56.070;12.698;2022-09-30T12:18:45;3.30;;;3.00;;
14209;SDS011;7188;56.070;12.698;2022-09-30T12:21:31;3.93;;;2.90;;
14209;SDS011;7188;56.070;12.698;2022-09-30T12:24:34;2.87;;;2.60;;
14209;SDS011;7188;56.070;12.698;2022-09-30T12:27:02;2.63;;;2.47;;
14209;SDS011;7188;56.070;12.698;2022-09-30T12:29:31;3.63;;;2.80;;
14209;SDS011;7188;56.070;12.698;2022-09-30T12:49:24;2.63;;;2.33;;
14209;SDS011;7188;56.070;12.698;2022-09-30T12:51:54;2.53;;;1.87;;
14209;SDS011;7188;56.070;12.698;2022-09-30T12:54:35;2.70;;;2.20;;
14209;SDS011;7188;56.070;12.698;2022-09-30T12:57:19;2.50;;;2.30;;
14209;SDS011;7188;56.070;12.698;2022-09-30T12:59:56;2.40;;;2.10;;
14209;SDS011;7188;56.070;12.698;2022-09-30T13:02:35;1.77;;;1.57;;
14209;SDS011;7188;56.070;12.698;2022-09-30T13:13:14;2.43;;;1.90;;
14209;SDS011;7188;56.070;12.698;2022-09-30T13:15:47;5.87;;;2.20;;
14209;SDS011;7188;56.070;12.698;2022-09-30T13:20:53;4.47;;;2.00;;
14209;SDS011;7188;56.070;12.698;2022-09-30T13:23:34;2.47;;;1.73;;
14209;SDS011;7188;56.070;12.698;2022-09-30T13:26:00;4.37;;;2.23;;
14209;SDS011;7188;56.070;12.698;2022-09-30T13:28:30;4.57;;;2.50;;
14209;SDS011;7188;56.070;12.698;2022-09-30T13:31:15;4.33;;;2.23;;
14209;SDS011;7188;56.070;12.698;2022-09-30T13:44:20;3.00;;;2.00;;
14209;SDS011;7188;56.070;12.698;2022-09-30T13:47:13;3.13;;;1.87;;
14209;SDS011;7188;56.070;12.698;2022-09-30T13:49:56;3.33;;;1.60;;
14209;SDS011;7188;56.070;12.698;2022-09-30T13:52:28;5.47;;;1.57;;
14209;SDS011;7188;56.070;12.698;2022-09-30T13:54:58;6.43;;;2.03;;
14209;SDS011;7188;56.070;12.698;2022-09-30T13:57:43;3.20;;;1.70;;
14209;SDS011;7188;56.070;12.698;2022-09-30T14:00:18;5.43;;;1.67;;
14209;SDS011;7188;56.070;12.698;2022-09-30T14:02:51;1.90;;;1.50;;
14209;SDS011;7188;56.070;12.698;2022-09-30T14:19:54;2.63;;;1.87;;
14209;SDS011;7188;56.070;12.698;2022-09-30T14:22:39;3.07;;;2.00;;
14209;SDS011;7188;56.070;12.698;2022-09-30T14:25:12;4.47;;;2.40;;
14209;SDS011;7188;56.070;12.698;2022-09-30T14:32:52;2.00;;;1.80;;
14209;SDS011;7188;56.070;12.698;2022-09-30T14:35:20;3.03;;;1.70;;
14209;SDS011;7188;56.070;12.698;2022-09-30T14:37:53;6.07;;;2.13;;
14209;SDS011;7188;56.070;12.698;2022-09-30T14:40:30;1.87;;;1.30;;
14209;SDS011;7188;56.070;12.698;2022-09-30T14:42:58;5.23;;;1.90;;
14209;SDS011;7188;56.070;12.698;2022-09-30T14:45:50;4.33;;;2.17;;
14209;SDS011;7188;56.070;12.698;2022-09-30T14:48:30;4.73;;;1.77;;
14209;SDS011;7188;56.070;12.698;2022-09-30T14:53:57;3.77;;;1.83;;
14209;SDS011;7188;56.070;12.698;2022-09-30T14:58:54;3.50;;;2.33;;
14209;SDS011;7188;56.070;12.698;2022-09-30T15:01:24;4.43;;;2.73;;
14209;SDS011;7188;56.070;12.698;2022-09-30T15:03:57;3.13;;;2.27;;
14209;SDS011;7188;56.070;12.698;2022-09-30T15:06:32;6.83;;;2.53;;
14209;SDS011;7188;56.070;12.698;2022-09-30T15:09:01;4.73;;;2.77;;
14209;SDS011;7188;56.070;12.698;2022-09-30T15:11:48;2.93;;;2.57;;
14209;SDS011;7188;56.070;12.698;2022-09-30T15:14:18;4.97;;;3.20;;
14209;SDS011;7188;56.070;12.698;2022-09-30T15:16:46;5.27;;;3.77;;
14209;SDS011;7188;56.070;12.698;2022-09-30T15:19:17;5.43;;;3.37;;
14209;SDS011;7188;56.070;12.698;2022-09-30T15:21:49;3.67;;;3.30;;
14209;SDS011;7188;56.070;12.698;2022-09-30T15:24:17;6.03;;;3.60;;
14209;SDS011;7188;56.070;12.698;2022-09-30T15:26:45;4.87;;;3.40;;
14209;SDS011;7188;56.070;12.698;2022-09-30T15:29:13;3.93;;;3.50;;
14209;SDS011;7188;56.070;12.698;2022-09-30T15:31:44;3.60;;;3.20;;
14209;SDS011;7188;56.070;12.698;2022-09-30T15:34:13;3.77;;;3.10;;
14209;SDS011;7188;56.070;12.698;2022-09-30T15:36:47;5.70;;;3.90;;
14209;SDS011;7188;56.070;12.698;2022-09-30T15:39:30;4.43;;;3.87;;
14209;SDS011;7188;56.070;12.698;2022-09-30T15:42:36;5.20;;;3.93;;
14209;SDS011;7188;56.070;12.698;2022-09-30T15:45:27;4.67;;;3.93;;
14209;SDS011;7188;56.070;12.698;2022-09-30T15:48:31;7.17;;;3.97;;
14209;SDS011;7188;56.070;12.698;2022-09-30T15:50:54;4.13;;;2.97;;
14209;SDS011;7188;56.070;12.698;2022-09-30T15:55:59;3.93;;;3.50;;
14209;SDS011;7188;56.070;12.698;2022-09-30T15:58:40;6.63;;;3.87;;
14209;SDS011;7188;56.070;12.698;2022-09-30T16:06:31;4.33;;;3.13;;
14209;SDS011;7188;56.070;12.698;2022-09-30T16:14:16;3.47;;;2.87;;
14209;SDS011;7188;56.070;12.698;2022-09-30T16:16:51;6.90;;;2.87;;
14209;SDS011;7188;56.070;12.698;2022-09-30T16:19:19;3.13;;;2.53;;
14209;SDS011;7188;56.070;12.698;2022-09-30T16:21:46;4.63;;;2.53;;
14209;SDS011;7188;56.070;12.698;2022-09-30T16:26:55;3.17;;;2.77;;
14209;SDS011;7188;56.070;12.698;2022-09-30T16:29:22;4.00;;;3.37;;
14209;SDS011;7188;56.070;12.698;2022-09-30T16:31:56;5.00;;;3.37;;
14209;SDS011;7188;56.070;12.698;2022-09-30T16:36:49;4.93;;;3.40;;
14209;SDS011;7188;56.070;12.698;2022-09-30T16:39:15;5.53;;;3.63;;
14209;SDS011;7188;56.070;12.698;2022-09-30T16:41:41;4.27;;;2.97;;
14209;SDS011;7188;56.070;12.698;2022-09-30T16:44:16;5.43;;;2.93;;
14209;SDS011;7188;56.070;12.698;2022-09-30T16:46:42;4.67;;;3.17;;
14209;SDS011;7188;56.070;12.698;2022-09-30T16:49:15;3.87;;;3.27;;
14209;SDS011;7188;56.070;12.698;2022-09-30T16:51:42;4.03;;;3.17;;
14209;SDS011;7188;56.070;12.698;2022-09-30T16:54:08;4.90;;;3.30;;
14209;SDS011;7188;56.070;12.698;2022-09-30T16:56:34;4.70;;;3.10;;
14209;SDS011;7188;56.070;12.698;2022-09-30T16:59:00;3.03;;;2.73;;
14209;SDS011;7188;56.070;12.698;2022-09-30T17:01:26;5.07;;;3.67;;
14209;SDS011;7188;56.070;12.698;2022-09-30T17:03:52;4.87;;;3.20;;
14209;SDS011;7188;56.070;12.698;2022-09-30T17:06:23;3.97;;;3.60;;
14209;SDS011;7188;56.070;12.698;2022-09-30T17:08:50;5.07;;;3.17;;
14209;SDS011;7188;56.070;12.698;2022-09-30T17:11:17;4.17;;;3.40;;
14209;SDS011;7188;56.070;12.698;2022-09-30T17:13:44;3.93;;;2.70;;
14209;SDS011;7188;56.070;12.698;2022-09-30T17:16:10;5.67;;;3.20;;
14209;SDS011;7188;56.070;12.698;2022-09-30T17:18:36;5.13;;;3.23;;
14209;SDS011;7188;56.070;12.698;2022-09-30T17:21:01;5.00;;;3.17;;
14209;SDS011;7188;56.070;12.698;2022-09-30T17:23:28;4.50;;;3.50;;
14209;SDS011;7188;56.070;12.698;2022-09-30T17:25:53;4.13;;;2.80;;
14209;SDS011;7188;56.070;12.698;2022-09-30T17:28:19;3.03;;;2.53;;
14209;SDS011;7188;56.070;12.698;2022-09-30T17:30:46;2.87;;;2.60;;
14209;SDS011;7188;56.070;12.698;2022-09-30T17:33:13;3.13;;;1.90;;
14209;SDS011;7188;56.070;12.698;2022-09-30T17:35:39;10.03;;;2.40;;
14209;SDS011;7188;56.070;12.698;2022-09-30T17:38:09;4.33;;;3.10;;
14209;SDS011;7188;56.070;12.698;2022-09-30T17:40:35;2.67;;;2.17;;
14209;SDS011;7188;56.070;12.698;2022-09-30T17:43:20;3.07;;;2.27;;
14209;SDS011;7188;56.070;12.698;2022-09-30T17:45:48;3.37;;;2.77;;
14209;SDS011;7188;56.070;12.698;2022-09-30T17:48:15;2.30;;;2.10;;
14209;SDS011;7188;56.070;12.698;2022-09-30T17:50:43;4.80;;;1.50;;
14209;SDS011;7188;56.070;12.698;2022-09-30T17:53:11;1.77;;;1.40;;
14209;SDS011;7188;56.070;12.698;2022-09-30T17:55:40;3.60;;;1.70;;
14209;SDS011;7188;56.070;12.698;2022-09-30T17:58:08;2.40;;;1.50;;
14209;SDS011;7188;56.070;12.698;2022-09-30T18:00:35;2.93;;;1.83;;
14209;SDS011;7188;56.070;12.698;2022-09-30T18:03:02;2.70;;;1.30;;
14209;SDS011;7188;56.070;12.698;2022-09-30T18:05:28;4.60;;;1.57;;
14209;SDS011;7188;56.070;12.698;2022-09-30T18:07:55;3.50;;;1.47;;
14209;SDS011;7188;56.070;12.698;2022-09-30T18:10:21;1.37;;;1.27;;
14209;SDS011;7188;56.070;12.698;2022-09-30T18:12:48;2.70;;;1.40;;
14209;SDS011;7188;56.070;12.698;2022-09-30T18:15:16;3.97;;;2.03;;
14209;SDS011;7188;56.070;12.698;2022-09-30T18:17:42;4.20;;;1.73;;
14209;SDS011;7188;56.070;12.698;2022-09-30T18:20:08;4.27;;;1.90;;
14209;SDS011;7188;56.070;12.698;2022-09-30T18:22:34;3.03;;;2.27;;
14209;SDS011;7188;56.070;12.698;2022-09-30T18:25:00;3.17;;;2.20;;
14209;SDS011;7188;56.070;12.698;2022-09-30T18:27:44;1.93;;;1.83;;
14209;SDS011;7188;56.070;12.698;2022-09-30T18:30:37;4.17;;;1.93;;
14209;SDS011;7188;56.070;12.698;2022-09-30T18:33:04;6.27;;;2.50;;
14209;SDS011;7188;56.070;12.698;2022-09-30T18:35:32;3.10;;;2.20;;
14209;SDS011;7188;56.070;12.698;2022-09-30T18:37:59;2.53;;;2.20;;
14209;SDS011;7188;56.070;12.698;2022-09-30T18:40:26;3.70;;;2.73;;
14209;SDS011;7188;56.070;12.698;2022-09-30T18:42:53;5.10;;;2.87;;
14209;SDS011;7188;56.070;12.698;2022-09-30T18:45:25;4.30;;;2.70;;
14209;SDS011;7188;56.070;12.698;2022-09-30T18:47:56;2.93;;;2.70;;
14209;SDS011;7188;56.070;12.698;2022-09-30T18:50:24;5.03;;;2.97;;